createdAt,value
2023-04-21T00:00:07.822Z,8.25
2023-04-21T00:02:36.018Z,8.05
2023-04-21T00:05:03.087Z,7.78
2023-04-21T00:07:30.656Z,8.15
2023-04-21T00:09:57.347Z,8.10
2023-04-21T00:12:24.050Z,8.02
2023-04-21T00:14:50.601Z,7.82
2023-04-21T00:17:17.168Z,7.72
2023-04-21T00:19:44.503Z,7.55
2023-04-21T00:22:14.957Z,7.88
2023-04-21T00:24:41.481Z,7.82
2023-04-21T00:27:07.995Z,8.00
2023-04-21T00:29:34.539Z,7.70
2023-04-21T00:32:02.031Z,8.43
2023-04-21T00:34:30.688Z,8.23
2023-04-21T00:36:57.456Z,8.25
2023-04-21T00:39:24.126Z,8.57
2023-04-21T00:41:50.843Z,8.63
2023-04-21T00:44:17.413Z,8.50
2023-04-21T00:46:43.969Z,8.40
2023-04-21T00:49:10.654Z,9.02
2023-04-21T00:51:37.714Z,8.48
2023-04-21T00:54:05.208Z,8.32
2023-04-21T00:56:32.670Z,9.52
2023-04-21T00:59:02.219Z,8.75
2023-04-21T01:01:30.283Z,9.27
2023-04-21T01:03:59.519Z,9.05
2023-04-21T01:06:29.709Z,9.10
2023-04-21T01:08:56.872Z,8.73
2023-04-21T01:11:23.501Z,10.43
2023-04-21T01:13:52.389Z,10.38
2023-04-21T01:16:19.073Z,10.70
2023-04-21T01:18:46.217Z,11.20
2023-04-21T01:21:13.223Z,12.00
2023-04-21T01:23:40.257Z,12.55
2023-04-21T01:26:06.784Z,12.63
2023-04-21T01:28:36.488Z,13.00
2023-04-21T01:31:04.447Z,12.95
2023-04-21T01:33:31.377Z,13.15
2023-04-21T01:35:58.546Z,12.88
2023-04-21T01:38:25.188Z,13.27
2023-04-21T01:40:52.926Z,13.95
2023-04-21T01:43:21.599Z,14.40
2023-04-21T01:45:48.251Z,14.82
2023-04-21T01:48:14.883Z,13.95
2023-04-21T01:50:41.815Z,14.68
2023-04-21T01:53:10.060Z,13.77
2023-04-21T01:55:36.736Z,15.10
2023-04-21T01:58:04.048Z,15.05
2023-04-21T02:00:30.750Z,15.15
2023-04-21T02:02:57.426Z,16.00
2023-04-21T02:05:24.032Z,16.58
2023-04-21T02:07:50.708Z,15.23
2023-04-21T02:10:17.594Z,17.00
2023-04-21T02:12:44.504Z,16.52
2023-04-21T02:15:11.399Z,18.55
2023-04-21T02:17:38.561Z,16.13
2023-04-21T02:20:06.008Z,17.35
2023-04-21T02:22:32.615Z,17.27
2023-04-21T02:25:02.926Z,17.60
2023-04-21T02:27:29.634Z,18.70
2023-04-21T02:29:59.309Z,17.70
2023-04-21T02:32:26.726Z,18.98
2023-04-21T02:34:53.373Z,17.88
2023-04-21T02:37:20.423Z,16.77
2023-04-21T02:39:47.174Z,18.40
2023-04-21T02:42:13.851Z,17.73
2023-04-21T02:44:40.599Z,17.95
2023-04-21T02:47:07.241Z,18.20
2023-04-21T02:49:35.272Z,17.63
2023-04-21T02:52:02.014Z,18.00
2023-04-21T02:54:28.734Z,19.00
2023-04-21T02:56:57.672Z,17.95
2023-04-21T02:59:24.167Z,17.55
2023-04-21T03:01:51.002Z,17.08
2023-04-21T03:04:17.734Z,18.10
2023-04-21T03:06:44.417Z,18.40
2023-04-21T03:09:12.236Z,17.73
2023-04-21T03:11:38.848Z,18.33
2023-04-21T03:14:05.384Z,18.27
2023-04-21T03:16:33.845Z,17.17
2023-04-21T03:19:00.357Z,17.85
2023-04-21T03:21:27.032Z,17.35
2023-04-21T03:23:53.882Z,18.75
2023-04-21T03:26:20.707Z,18.02
2023-04-21T03:28:47.139Z,17.70
2023-04-21T03:31:13.739Z,16.55
2023-04-21T03:33:40.206Z,16.80
2023-04-21T03:36:06.999Z,17.20
2023-04-21T03:38:33.606Z,17.40
2023-04-21T03:41:03.538Z,16.85
2023-04-21T03:43:30.349Z,15.57
2023-04-21T03:45:56.910Z,15.60
2023-04-21T03:48:23.640Z,15.68
2023-04-21T03:50:50.255Z,16.70
2023-04-21T03:53:17.051Z,15.30
2023-04-21T03:55:43.494Z,15.43
2023-04-21T03:58:10.068Z,15.38
2023-04-21T04:00:36.610Z,15.43
2023-04-21T04:03:03.348Z,15.55
2023-04-21T04:05:29.972Z,15.18
2023-04-21T04:07:56.755Z,15.10
2023-04-21T04:10:23.258Z,14.43
2023-04-21T04:12:49.892Z,13.63
2023-04-21T04:15:16.816Z,12.90
2023-04-21T04:17:43.567Z,14.10
2023-04-21T04:20:10.203Z,13.60
2023-04-21T04:22:37.107Z,14.38
2023-04-21T04:25:04.021Z,13.38
2023-04-21T04:27:30.689Z,13.48
2023-04-21T04:29:57.748Z,13.63
2023-04-21T04:32:28.593Z,13.10
2023-04-21T04:34:58.951Z,12.75
2023-04-21T04:37:25.757Z,12.98
2023-04-21T04:39:55.424Z,13.75
2023-04-21T04:42:22.159Z,13.10
2023-04-21T04:44:48.718Z,13.02
2023-04-21T04:47:15.378Z,14.55
2023-04-21T04:49:41.881Z,14.43
2023-04-21T04:52:09.041Z,13.75
2023-04-21T04:54:36.337Z,13.23
2023-04-21T04:57:03.310Z,13.77
2023-04-21T04:59:30.968Z,14.35
2023-04-21T05:01:57.604Z,14.27
2023-04-21T05:04:24.347Z,13.60
2023-04-21T05:06:52.001Z,13.57
2023-04-21T05:09:18.459Z,13.75
2023-04-21T05:11:45.155Z,13.38
2023-04-21T05:14:11.635Z,14.32
2023-04-21T05:16:38.236Z,12.23
2023-04-21T05:19:04.767Z,12.80
2023-04-21T05:21:31.564Z,13.50
2023-04-21T05:23:58.982Z,13.35
2023-04-21T05:26:27.468Z,12.32
2023-04-21T05:28:54.726Z,13.65
2023-04-21T05:31:21.426Z,13.50
2023-04-21T05:33:47.899Z,12.77
2023-04-21T05:36:14.543Z,13.88
2023-04-21T05:38:41.033Z,14.27
2023-04-21T05:41:08.105Z,14.43
2023-04-21T05:43:35.031Z,14.52
2023-04-21T05:46:02.281Z,14.13
2023-04-21T05:48:28.854Z,15.13
2023-04-21T05:50:55.881Z,14.55
2023-04-21T05:53:23.681Z,16.55
2023-04-21T05:55:50.811Z,16.73
2023-04-21T05:58:17.317Z,17.85
2023-04-21T06:00:43.919Z,18.52
2023-04-21T06:03:10.578Z,17.85
2023-04-21T06:05:37.335Z,18.02
2023-04-21T06:08:04.150Z,19.10
2023-04-21T06:10:31.254Z,19.08
2023-04-21T06:12:57.894Z,17.77
2023-04-21T06:15:24.397Z,19.65
2023-04-21T06:17:55.347Z,19.35
2023-04-21T06:20:22.130Z,19.10
2023-04-21T06:22:48.658Z,19.23
2023-04-21T06:25:15.273Z,19.92
2023-04-21T06:27:41.840Z,19.98
2023-04-21T06:30:08.853Z,20.33
2023-04-21T06:32:36.249Z,19.92
2023-04-21T06:35:03.015Z,20.23
2023-04-21T06:37:29.627Z,20.38
2023-04-21T06:39:56.356Z,20.25
2023-04-21T06:42:23.024Z,20.90
2023-04-21T06:44:50.902Z,21.88
2023-04-21T06:47:17.938Z,21.55
2023-04-21T06:49:44.781Z,20.65
2023-04-21T06:52:11.581Z,20.23
2023-04-21T06:54:38.602Z,20.48
2023-04-21T06:57:05.053Z,21.15
2023-04-21T06:59:31.710Z,20.13
2023-04-21T07:01:58.293Z,21.00
2023-04-21T07:04:30.147Z,20.48
2023-04-21T07:06:56.899Z,19.92
2023-04-21T07:09:23.483Z,20.17
2023-04-21T07:11:50.026Z,21.58
2023-04-21T07:14:16.554Z,20.83
2023-04-21T07:16:43.087Z,21.08
2023-04-21T07:19:09.863Z,20.25
2023-04-21T07:21:36.416Z,21.40
2023-04-21T07:24:04.057Z,22.38
2023-04-21T07:26:31.008Z,21.58
2023-04-21T07:28:58.559Z,22.42
2023-04-21T07:31:25.537Z,22.42
2023-04-21T07:33:52.092Z,22.75
2023-04-21T07:36:18.756Z,22.73
2023-04-21T07:38:45.517Z,22.08
2023-04-21T07:41:12.552Z,21.58
2023-04-21T07:43:39.377Z,20.98
2023-04-21T07:46:06.541Z,19.90
2023-04-21T07:48:33.044Z,19.73
2023-04-21T07:51:00.484Z,20.23
2023-04-21T07:53:27.196Z,20.15
2023-04-21T07:55:54.237Z,21.50
2023-04-21T07:58:21.270Z,20.88
2023-04-21T08:00:48.172Z,19.67
2023-04-21T08:03:14.984Z,18.83
2023-04-21T08:05:42.263Z,20.10
2023-04-21T08:08:09.025Z,20.65
2023-04-21T08:10:35.672Z,20.63
2023-04-21T08:13:03.360Z,18.67
2023-04-21T08:15:29.943Z,18.90
2023-04-21T08:17:56.647Z,18.67
2023-04-21T08:20:23.290Z,20.25
2023-04-21T08:22:49.977Z,21.23
2023-04-21T08:25:16.505Z,21.08
2023-04-21T08:27:43.938Z,19.92
2023-04-21T08:30:11.120Z,19.88
2023-04-21T08:32:37.675Z,19.58
2023-04-21T08:35:04.744Z,18.98
2023-04-21T08:37:31.262Z,18.27
2023-04-21T08:39:58.012Z,18.05
2023-04-21T08:42:24.489Z,17.67
2023-04-21T08:44:51.245Z,17.83
2023-04-21T08:47:18.108Z,17.27
2023-04-21T08:49:45.217Z,18.10
2023-04-21T08:52:12.413Z,17.98
2023-04-21T08:54:39.179Z,18.02
2023-04-21T08:57:15.429Z,18.23
2023-04-21T08:59:42.964Z,17.67
2023-04-21T09:02:10.931Z,17.08
2023-04-21T09:04:41.265Z,17.77
2023-04-21T09:07:09.118Z,17.13
2023-04-21T09:09:54.364Z,16.00
2023-04-21T09:12:21.422Z,17.35
2023-04-21T09:14:48.127Z,16.42
2023-04-21T09:17:18.097Z,17.05
2023-04-21T09:19:44.751Z,16.98
2023-04-21T09:22:17.813Z,15.75
2023-04-21T09:24:48.676Z,15.50
2023-04-21T09:27:16.247Z,15.80
2023-04-21T09:29:48.678Z,15.70
2023-04-21T09:32:19.534Z,16.02
2023-04-21T09:34:46.360Z,15.75
2023-04-21T09:37:15.677Z,14.10
2023-04-21T09:39:53.096Z,14.35
2023-04-21T09:42:30.518Z,14.98
2023-04-21T09:45:10.892Z,14.95
2023-04-21T09:47:45.835Z,14.77
2023-04-21T09:50:13.182Z,15.23
2023-04-21T09:52:40.410Z,15.68
2023-04-21T09:55:13.413Z,16.80
2023-04-21T09:57:41.602Z,17.05
2023-04-21T10:00:12.394Z,16.23
2023-04-21T10:02:43.376Z,16.63
2023-04-21T10:05:11.263Z,16.33
2023-04-21T10:07:37.868Z,17.50
2023-04-21T10:10:07.171Z,18.13
2023-04-21T10:12:33.951Z,18.63
2023-04-21T10:15:03.885Z,16.35
2023-04-21T10:17:39.757Z,16.80
2023-04-21T10:20:06.826Z,17.25
2023-04-21T10:22:34.211Z,16.92
2023-04-21T10:25:01.759Z,16.55
2023-04-21T10:27:46.449Z,16.67
2023-04-21T10:30:22.948Z,16.55
2023-04-21T10:33:01.792Z,17.38
2023-04-21T10:35:48.417Z,17.35
2023-04-21T10:38:33.546Z,16.10
2023-04-21T10:43:49.536Z,16.98
2023-04-21T10:46:32.457Z,16.38
2023-04-21T10:49:05.901Z,15.85
2023-04-21T10:51:35.908Z,16.42
2023-04-21T10:54:04.932Z,16.45
2023-04-21T10:56:32.077Z,16.00
2023-04-21T10:58:59.595Z,17.50
2023-04-21T11:01:26.335Z,16.23
2023-04-21T11:03:54.735Z,16.02
2023-04-21T11:06:23.675Z,16.42
2023-04-21T11:08:56.680Z,16.05
2023-04-21T11:11:29.691Z,16.83
2023-04-21T11:13:59.933Z,15.77
2023-04-21T11:16:26.569Z,16.73
2023-04-21T11:18:53.164Z,17.27
2023-04-21T11:21:22.671Z,16.60
2023-04-21T11:23:50.468Z,17.27
2023-04-21T11:26:17.547Z,17.13
2023-04-21T11:28:47.343Z,18.25
2023-04-21T11:31:14.193Z,17.90
2023-04-21T11:33:41.578Z,17.40
2023-04-21T11:36:08.325Z,17.95
2023-04-21T11:38:41.946Z,18.23
2023-04-21T11:41:11.115Z,18.02
2023-04-21T11:43:38.104Z,17.00
2023-04-21T11:46:14.425Z,17.27
2023-04-21T11:48:41.394Z,16.63
2023-04-21T11:51:14.382Z,16.40
2023-04-21T11:53:41.155Z,15.70
2023-04-21T11:56:09.178Z,15.45
2023-04-21T11:58:38.895Z,15.40
2023-04-21T12:01:10.872Z,16.35
2023-04-21T12:03:43.364Z,14.73
2023-04-21T12:06:11.692Z,14.02
2023-04-21T12:08:40.959Z,15.25
2023-04-21T12:11:09.980Z,14.50
2023-04-21T12:13:40.530Z,14.10
2023-04-21T12:16:17.318Z,14.98
2023-04-21T12:19:01.761Z,15.02
2023-04-21T12:21:37.876Z,15.57
2023-04-21T12:24:09.409Z,14.55
2023-04-21T12:26:36.772Z,15.93
2023-04-21T12:29:05.771Z,16.48
2023-04-21T12:31:35.643Z,16.42
2023-04-21T12:34:11.272Z,15.60
2023-04-21T12:36:46.540Z,14.32
2023-04-21T12:39:17.895Z,13.90
2023-04-21T12:41:45.655Z,14.90
2023-04-21T12:44:15.374Z,13.93
2023-04-21T12:46:42.220Z,14.00
2023-04-21T12:49:10.086Z,14.25
2023-04-21T12:51:53.506Z,13.77
2023-04-21T12:54:29.240Z,14.50
2023-04-21T12:56:56.130Z,14.95
2023-04-21T12:59:22.581Z,15.95
2023-04-21T13:01:50.695Z,15.95
2023-04-21T13:04:17.738Z,17.25
2023-04-21T13:06:44.616Z,17.27
2023-04-21T13:09:11.470Z,18.83
2023-04-21T13:11:38.125Z,17.42
2023-04-21T13:14:04.706Z,16.92
2023-04-21T13:16:31.460Z,16.65
2023-04-21T13:18:58.082Z,16.70
2023-04-21T13:21:24.749Z,16.73
2023-04-21T13:23:51.207Z,16.05
2023-04-21T13:26:18.293Z,15.40
2023-04-21T13:28:54.205Z,14.50
2023-04-21T13:31:21.104Z,14.13
2023-04-21T13:33:47.740Z,13.25
2023-04-21T13:36:14.467Z,13.15
2023-04-21T13:38:41.190Z,13.10
2023-04-21T13:41:08.053Z,13.88
2023-04-21T13:43:37.659Z,14.07
2023-04-21T13:46:04.645Z,14.40
2023-04-21T13:48:31.228Z,12.60
2023-04-21T13:50:57.814Z,12.38
2023-04-21T13:53:24.400Z,13.10
2023-04-21T13:55:51.192Z,11.60
2023-04-21T13:58:17.983Z,11.95
2023-04-21T14:00:49.673Z,11.38
2023-04-21T14:03:16.769Z,11.35
2023-04-21T14:05:43.808Z,14.77
2023-04-21T14:08:10.616Z,13.93
2023-04-21T14:10:37.176Z,14.88
2023-04-21T14:13:04.976Z,14.38
2023-04-21T14:15:31.861Z,14.60
2023-04-21T14:17:58.533Z,14.68
2023-04-21T14:20:27.208Z,14.05
2023-04-21T14:22:53.784Z,14.40
2023-04-21T14:25:20.500Z,15.10
2023-04-21T14:27:49.810Z,15.05
2023-04-21T14:30:16.330Z,15.20
2023-04-21T14:32:45.667Z,15.02
2023-04-21T14:35:12.648Z,14.23
2023-04-21T14:37:39.859Z,15.05
2023-04-21T14:40:07.370Z,15.70
2023-04-21T14:42:34.057Z,15.13
2023-04-21T14:45:00.676Z,15.18
2023-04-21T14:47:27.417Z,15.35
2023-04-21T14:49:56.118Z,14.48
2023-04-21T14:52:25.750Z,15.25
2023-04-21T14:54:52.462Z,15.10
2023-04-21T14:57:20.943Z,15.20
2023-04-21T14:59:51.873Z,14.73
2023-04-21T15:02:19.593Z,15.60
2023-04-21T15:04:46.393Z,15.07
2023-04-21T15:07:13.129Z,14.57
2023-04-21T15:09:39.702Z,15.27
2023-04-21T15:12:07.056Z,13.57
2023-04-21T15:14:33.704Z,14.07
2023-04-21T15:17:00.413Z,14.43
2023-04-21T15:19:26.981Z,14.05
2023-04-21T15:21:53.522Z,13.55
2023-04-21T15:24:19.953Z,14.20
2023-04-21T15:26:46.590Z,13.20
2023-04-21T15:29:13.035Z,14.07
2023-04-21T15:31:40.411Z,13.38
2023-04-21T15:34:07.150Z,13.65
2023-04-21T15:36:34.472Z,14.48
2023-04-21T15:39:01.152Z,13.00
2023-04-21T15:41:29.659Z,14.32
2023-04-21T15:43:56.527Z,13.45
2023-04-21T15:46:23.430Z,13.25
2023-04-21T15:48:50.085Z,12.93
2023-04-21T15:51:18.471Z,13.82
2023-04-21T15:53:47.879Z,13.25
2023-04-21T15:56:26.249Z,13.55
2023-04-21T15:58:53.111Z,13.20
2023-04-21T16:01:20.149Z,14.18
2023-04-21T16:03:49.071Z,13.10
2023-04-21T16:06:15.999Z,13.20
2023-04-21T16:08:42.616Z,13.55
2023-04-21T16:11:09.238Z,14.35
2023-04-21T16:13:35.825Z,13.50
2023-04-21T16:16:02.551Z,14.25
2023-04-21T16:18:29.419Z,13.85
2023-04-21T16:20:56.045Z,13.77
2023-04-21T16:23:27.789Z,14.48
2023-04-21T16:25:54.913Z,14.18
2023-04-21T16:28:21.647Z,15.15
2023-04-21T16:30:50.716Z,15.38
2023-04-21T16:33:20.512Z,14.05
2023-04-21T16:35:47.277Z,12.98
2023-04-21T16:38:13.896Z,11.10
2023-04-21T16:40:40.982Z,10.13
2023-04-21T16:43:10.219Z,10.70
2023-04-21T16:45:36.963Z,10.15
2023-04-21T16:48:03.682Z,10.50
2023-04-21T16:50:32.871Z,10.48
2023-04-21T16:53:05.873Z,10.50
2023-04-21T16:55:32.565Z,10.90
2023-04-21T16:58:03.130Z,10.65
2023-04-21T17:00:30.512Z,10.75
2023-04-21T17:02:57.564Z,10.75
2023-04-21T17:05:24.770Z,10.40
2023-04-21T17:07:51.242Z,10.43
2023-04-21T17:10:18.227Z,9.85
2023-04-21T17:12:54.842Z,9.10
2023-04-21T17:15:21.626Z,9.80
2023-04-21T17:17:49.611Z,9.27
2023-04-21T17:20:16.327Z,9.88
2023-04-21T17:22:43.114Z,9.40
2023-04-21T17:25:10.205Z,9.73
2023-04-21T17:27:39.649Z,10.32
2023-04-21T17:30:07.304Z,9.93
2023-04-21T17:32:34.476Z,10.13
2023-04-21T17:35:01.418Z,9.80
2023-04-21T17:37:28.959Z,9.20
2023-04-21T17:39:55.939Z,9.07
2023-04-21T17:42:22.474Z,10.05
2023-04-21T17:44:49.108Z,10.27
2023-04-21T17:47:15.649Z,10.13
2023-04-21T17:49:42.452Z,9.82
2023-04-21T17:52:11.453Z,11.13
2023-04-21T17:54:38.386Z,10.73
2023-04-21T17:57:05.962Z,10.70
2023-04-21T17:59:36.664Z,10.73
2023-04-21T18:02:03.714Z,10.95
2023-04-21T18:04:30.907Z,10.73
2023-04-21T18:06:59.067Z,11.10
2023-04-21T18:09:25.961Z,10.57
2023-04-21T18:11:52.716Z,8.93
2023-04-21T18:14:21.038Z,6.25
2023-04-21T18:16:48.407Z,7.68
2023-04-21T18:19:16.092Z,7.18
2023-04-21T18:21:42.630Z,6.75
2023-04-21T18:24:09.269Z,7.60
2023-04-21T18:26:36.290Z,7.57
2023-04-21T18:29:03.106Z,6.68
2023-04-21T18:31:29.880Z,7.18
2023-04-21T18:33:57.217Z,6.93
2023-04-21T18:36:23.871Z,7.75
2023-04-21T18:38:50.381Z,7.40
2023-04-21T18:41:20.452Z,6.10
2023-04-21T18:43:47.129Z,5.47
2023-04-21T18:46:13.886Z,6.05
2023-04-21T18:48:40.567Z,5.47
2023-04-21T18:51:07.222Z,6.00
2023-04-21T18:53:33.754Z,5.75
2023-04-21T18:56:00.247Z,5.35
2023-04-21T18:58:26.949Z,6.07
2023-04-21T19:00:53.651Z,4.63
2023-04-21T19:03:20.423Z,4.65
2023-04-21T19:05:47.181Z,4.55
2023-04-21T19:08:13.880Z,4.53
2023-04-21T19:10:40.507Z,5.25
2023-04-21T19:13:07.097Z,4.90
2023-04-21T19:15:33.649Z,4.93
2023-04-21T19:18:00.272Z,5.40
2023-04-21T19:20:35.923Z,6.00
2023-04-21T19:23:03.515Z,5.50
2023-04-21T19:25:30.407Z,5.22
2023-04-21T19:27:57.625Z,5.70
2023-04-21T19:30:25.653Z,7.30
2023-04-21T19:32:54.624Z,7.35
2023-04-21T19:35:23.325Z,8.20
2023-04-21T19:37:50.375Z,7.72
2023-04-21T19:40:21.389Z,8.73
2023-04-21T19:42:47.906Z,9.82
2023-04-21T19:45:14.589Z,9.93
2023-04-21T19:47:41.305Z,9.77
2023-04-21T19:50:08.475Z,10.45
2023-04-21T19:52:36.994Z,11.27
2023-04-21T19:55:04.692Z,10.98
2023-04-21T19:57:31.350Z,11.85
2023-04-21T19:59:57.875Z,12.15
2023-04-21T20:02:24.635Z,11.52
2023-04-21T20:04:51.308Z,12.48
2023-04-21T20:07:20.384Z,11.98
2023-04-21T20:09:46.936Z,11.95
2023-04-21T20:12:14.054Z,12.35
2023-04-21T20:14:40.549Z,13.10
2023-04-21T20:17:07.327Z,12.35
2023-04-21T20:19:35.964Z,12.90
2023-04-21T20:22:02.895Z,14.02
2023-04-21T20:24:29.461Z,13.57
2023-04-21T20:26:56.480Z,13.75
2023-04-21T20:29:23.435Z,13.70
2023-04-21T20:31:50.825Z,15.65
2023-04-21T20:34:17.428Z,14.43
2023-04-21T20:36:44.812Z,12.77
2023-04-21T20:39:13.316Z,13.85
2023-04-21T20:41:43.540Z,13.98
2023-04-21T20:44:10.231Z,14.25
2023-04-21T20:46:36.922Z,14.32
2023-04-21T20:49:03.625Z,14.93
2023-04-21T20:51:30.093Z,14.55
2023-04-21T20:53:56.863Z,14.98
2023-04-21T20:56:23.634Z,14.95
2023-04-21T20:58:50.652Z,15.60
2023-04-21T21:01:18.086Z,14.10
2023-04-21T21:03:46.091Z,14.15
2023-04-21T21:06:14.625Z,13.05
2023-04-21T21:08:42.000Z,13.05
2023-04-21T21:11:08.459Z,13.18
2023-04-21T21:13:35.093Z,13.80
2023-04-21T21:16:01.618Z,12.52
2023-04-21T21:18:29.753Z,12.45
2023-04-21T21:20:56.664Z,13.13
2023-04-21T21:23:23.293Z,12.68
2023-04-21T21:25:50.431Z,12.43
2023-04-21T21:28:17.132Z,11.70
2023-04-21T21:30:43.649Z,12.07
2023-04-21T21:33:10.447Z,11.27
2023-04-21T21:35:37.188Z,12.48
2023-04-21T21:38:03.793Z,11.52
2023-04-21T21:40:30.311Z,13.38
2023-04-21T21:42:56.928Z,12.60
2023-04-21T21:45:23.438Z,12.60
2023-04-21T21:47:50.386Z,10.77
2023-04-21T21:50:16.884Z,10.75
2023-04-21T21:52:43.470Z,11.23
2023-04-21T21:55:10.215Z,11.05
2023-04-21T21:57:37.057Z,10.95
2023-04-21T22:00:07.543Z,11.45
2023-04-21T22:02:35.348Z,11.55
2023-04-21T22:05:02.179Z,14.38
2023-04-21T22:07:29.439Z,14.05
2023-04-21T22:09:59.730Z,15.07
2023-04-21T22:12:27.034Z,15.82
2023-04-21T22:14:53.738Z,15.40
2023-04-21T22:17:21.379Z,16.90
2023-04-21T22:19:48.010Z,15.82
2023-04-21T22:22:14.595Z,16.60
2023-04-21T22:24:41.222Z,15.68
2023-04-21T22:27:07.871Z,17.25
2023-04-21T22:29:34.391Z,17.90
2023-04-21T22:32:01.031Z,17.13
2023-04-21T22:34:27.535Z,18.50
2023-04-21T22:36:54.782Z,18.65
2023-04-21T22:39:21.477Z,19.38
2023-04-21T22:41:48.139Z,20.65
2023-04-21T22:44:14.828Z,21.70
2023-04-21T22:46:41.768Z,20.52
2023-04-21T22:49:09.237Z,21.13
2023-04-21T22:51:36.415Z,23.48
2023-04-21T22:54:03.387Z,22.90
2023-04-21T22:56:30.094Z,24.13
2023-04-21T22:58:56.719Z,22.70
2023-04-21T23:01:23.371Z,25.13
2023-04-21T23:03:50.236Z,22.80
2023-04-21T23:06:17.146Z,23.23
2023-04-21T23:08:43.660Z,23.38
2023-04-21T23:11:10.428Z,24.27
2023-04-21T23:13:37.215Z,22.20
2023-04-21T23:16:03.910Z,22.73
2023-04-21T23:18:30.466Z,23.35
2023-04-21T23:20:57.707Z,22.88
2023-04-21T23:23:24.248Z,23.33
2023-04-21T23:25:50.909Z,21.52
2023-04-21T23:28:18.073Z,21.55
2023-04-21T23:31:26.596Z,22.20
2023-04-21T23:33:54.473Z,20.73
2023-04-21T23:36:20.991Z,20.00
2023-04-21T23:38:47.719Z,21.88
2023-04-21T23:41:14.209Z,21.48
2023-04-21T23:43:41.000Z,20.70
2023-04-21T23:46:07.698Z,19.88
2023-04-21T23:48:34.874Z,19.13
2023-04-21T23:51:01.500Z,19.48
2023-04-21T23:53:28.134Z,19.70
2023-04-21T23:55:54.563Z,18.75
2023-04-21T23:58:21.059Z,19.67
